sensor_id;sensor_type;location;lat;lon;timestamp;P1;durP1;ratioP1;P2;durP2;ratioP2
20997;SDS011;10657;51.276;6.390;2022-10-22T00:02:19;12.27;;;3.03;;
20997;SDS011;10657;51.276;6.390;2022-10-22T00:04:46;10.65;;;2.90;;
20997;SDS011;10657;51.276;6.390;2022-10-22T00:07:14;7.63;;;2.50;;
20997;SDS011;10657;51.276;6.390;2022-10-22T00:09:42;7.70;;;3.08;;
20997;SDS011;10657;51.276;6.390;2022-10-22T00:12:08;6.85;;;3.10;;
20997;SDS011;10657;51.276;6.390;2022-10-22T00:14:35;8.65;;;3.28;;
20997;SDS011;10657;51.276;6.390;2022-10-22T00:17:02;8.20;;;3.03;;
20997;SDS011;10657;51.276;6.390;2022-10-22T00:19:36;8.32;;;3.00;;
20997;SDS011;10657;51.276;6.390;2022-10-22T00:22:03;10.02;;;3.20;;
20997;SDS011;10657;51.276;6.390;2022-10-22T00:24:31;11.13;;;3.20;;
20997;SDS011;10657;51.276;6.390;2022-10-22T00:26:58;9.90;;;3.13;;
20997;SDS011;10657;51.276;6.390;2022-10-22T00:29:25;7.15;;;2.95;;
20997;SDS011;10657;51.276;6.390;2022-10-22T00:31:52;6.80;;;2.75;;
20997;SDS011;10657;51.276;6.390;2022-10-22T00:34:23;9.98;;;3.25;;
20997;SDS011;10657;51.276;6.390;2022-10-22T00:36:51;10.73;;;3.53;;
20997;SDS011;10657;51.276;6.390;2022-10-22T00:39:18;10.10;;;3.33;;
20997;SDS011;10657;51.276;6.390;2022-10-22T00:41:48;8.25;;;3.70;;
20997;SDS011;10657;51.276;6.390;2022-10-22T00:47:19;10.05;;;3.80;;
20997;SDS011;10657;51.276;6.390;2022-10-22T00:49:49;12.98;;;3.85;;
20997;SDS011;10657;51.276;6.390;2022-10-22T00:52:16;13.50;;;3.55;;
20997;SDS011;10657;51.276;6.390;2022-10-22T00:54:43;7.95;;;2.92;;
20997;SDS011;10657;51.276;6.390;2022-10-22T00:57:10;9.82;;;3.20;;
20997;SDS011;10657;51.276;6.390;2022-10-22T00:59:37;7.85;;;2.97;;
20997;SDS011;10657;51.276;6.390;2022-10-22T01:02:04;7.45;;;2.80;;
20997;SDS011;10657;51.276;6.390;2022-10-22T01:04:31;10.13;;;3.13;;
20997;SDS011;10657;51.276;6.390;2022-10-22T01:06:57;12.80;;;3.22;;
20997;SDS011;10657;51.276;6.390;2022-10-22T01:14:35;9.57;;;3.00;;
20997;SDS011;10657;51.276;6.390;2022-10-22T01:26:04;9.82;;;3.20;;
20997;SDS011;10657;51.276;6.390;2022-10-22T01:31:17;9.25;;;3.22;;
20997;SDS011;10657;51.276;6.390;2022-10-22T01:33:47;7.53;;;3.00;;
20997;SDS011;10657;51.276;6.390;2022-10-22T01:36:16;10.93;;;3.47;;
20997;SDS011;10657;51.276;6.390;2022-10-22T01:38:44;9.18;;;3.88;;
20997;SDS011;10657;51.276;6.390;2022-10-22T01:41:12;12.55;;;3.03;;
20997;SDS011;10657;51.276;6.390;2022-10-22T01:43:40;11.13;;;3.30;;
20997;SDS011;10657;51.276;6.390;2022-10-22T01:46:08;9.05;;;2.80;;
20997;SDS011;10657;51.276;6.390;2022-10-22T01:51:31;10.57;;;3.40;;
20997;SDS011;10657;51.276;6.390;2022-10-22T01:56:57;10.70;;;3.15;;
20997;SDS011;10657;51.276;6.390;2022-10-22T02:02:48;9.48;;;3.25;;
20997;SDS011;10657;51.276;6.390;2022-10-22T02:05:42;11.15;;;3.20;;
20997;SDS011;10657;51.276;6.390;2022-10-22T02:08:16;8.52;;;3.33;;
20997;SDS011;10657;51.276;6.390;2022-10-22T02:10:46;7.53;;;2.83;;
20997;SDS011;10657;51.276;6.390;2022-10-22T02:13:23;7.60;;;2.90;;
20997;SDS011;10657;51.276;6.390;2022-10-22T02:15:53;7.57;;;3.08;;
20997;SDS011;10657;51.276;6.390;2022-10-22T02:18:21;10.60;;;3.13;;
20997;SDS011;10657;51.276;6.390;2022-10-22T02:20:51;13.55;;;3.33;;
20997;SDS011;10657;51.276;6.390;2022-10-22T02:23:19;9.90;;;2.95;;
20997;SDS011;10657;51.276;6.390;2022-10-22T02:25:48;7.28;;;2.88;;
20997;SDS011;10657;51.276;6.390;2022-10-22T02:28:23;10.82;;;3.22;;
20997;SDS011;10657;51.276;6.390;2022-10-22T02:30:59;7.65;;;3.15;;
20997;SDS011;10657;51.276;6.390;2022-10-22T02:33:36;11.77;;;3.53;;
20997;SDS011;10657;51.276;6.390;2022-10-22T02:36:11;15.55;;;3.47;;
20997;SDS011;10657;51.276;6.390;2022-10-22T02:38:39;7.97;;;3.60;;
20997;SDS011;10657;51.276;6.390;2022-10-22T02:41:07;9.30;;;3.53;;
20997;SDS011;10657;51.276;6.390;2022-10-22T02:43:41;8.48;;;3.40;;
20997;SDS011;10657;51.276;6.390;2022-10-22T02:46:10;8.60;;;3.47;;
20997;SDS011;10657;51.276;6.390;2022-10-22T02:48:37;10.40;;;3.63;;
20997;SDS011;10657;51.276;6.390;2022-10-22T02:51:03;11.30;;;3.30;;
20997;SDS011;10657;51.276;6.390;2022-10-22T02:53:30;11.52;;;3.50;;
20997;SDS011;10657;51.276;6.390;2022-10-22T02:55:57;12.18;;;3.50;;
20997;SDS011;10657;51.276;6.390;2022-10-22T02:58:24;9.70;;;3.97;;
20997;SDS011;10657;51.276;6.390;2022-10-22T03:00:51;11.95;;;3.50;;
20997;SDS011;10657;51.276;6.390;2022-10-22T03:03:18;7.70;;;3.58;;
20997;SDS011;10657;51.276;6.390;2022-10-22T03:05:44;9.82;;;3.65;;
20997;SDS011;10657;51.276;6.390;2022-10-22T03:08:11;10.05;;;3.35;;
20997;SDS011;10657;51.276;6.390;2022-10-22T03:10:38;12.48;;;4.00;;
20997;SDS011;10657;51.276;6.390;2022-10-22T03:13:05;11.55;;;3.65;;
20997;SDS011;10657;51.276;6.390;2022-10-22T03:15:31;11.52;;;4.10;;
20997;SDS011;10657;51.276;6.390;2022-10-22T03:17:58;12.35;;;3.85;;
20997;SDS011;10657;51.276;6.390;2022-10-22T03:20:25;10.60;;;4.38;;
20997;SDS011;10657;51.276;6.390;2022-10-22T03:22:52;11.15;;;4.35;;
20997;SDS011;10657;51.276;6.390;2022-10-22T03:25:20;9.25;;;4.22;;
20997;SDS011;10657;51.276;6.390;2022-10-22T03:27:49;8.90;;;4.30;;
20997;SDS011;10657;51.276;6.390;2022-10-22T03:30:17;11.77;;;4.00;;
20997;SDS011;10657;51.276;6.390;2022-10-22T03:32:44;9.98;;;4.35;;
20997;SDS011;10657;51.276;6.390;2022-10-22T03:35:11;10.68;;;4.47;;
20997;SDS011;10657;51.276;6.390;2022-10-22T03:37:37;14.18;;;3.75;;
20997;SDS011;10657;51.276;6.390;2022-10-22T03:40:05;8.57;;;4.00;;
20997;SDS011;10657;51.276;6.390;2022-10-22T03:42:33;7.47;;;3.65;;
20997;SDS011;10657;51.276;6.390;2022-10-22T03:45:00;9.73;;;3.83;;
20997;SDS011;10657;51.276;6.390;2022-10-22T03:47:26;10.25;;;4.50;;
20997;SDS011;10657;51.276;6.390;2022-10-22T03:49:53;7.53;;;3.70;;
20997;SDS011;10657;51.276;6.390;2022-10-22T03:52:20;9.23;;;3.60;;
20997;SDS011;10657;51.276;6.390;2022-10-22T03:54:46;11.93;;;4.28;;
20997;SDS011;10657;51.276;6.390;2022-10-22T03:57:13;10.30;;;3.90;;
20997;SDS011;10657;51.276;6.390;2022-10-22T03:59:40;9.73;;;4.30;;
20997;SDS011;10657;51.276;6.390;2022-10-22T04:02:10;11.55;;;3.92;;
20997;SDS011;10657;51.276;6.390;2022-10-22T04:04:37;16.75;;;4.47;;
20997;SDS011;10657;51.276;6.390;2022-10-22T04:07:05;11.90;;;4.22;;
20997;SDS011;10657;51.276;6.390;2022-10-22T04:09:33;12.23;;;4.35;;
20997;SDS011;10657;51.276;6.390;2022-10-22T04:12:00;9.90;;;4.60;;
20997;SDS011;10657;51.276;6.390;2022-10-22T04:14:27;9.10;;;4.30;;
20997;SDS011;10657;51.276;6.390;2022-10-22T04:16:54;9.20;;;4.40;;
20997;SDS011;10657;51.276;6.390;2022-10-22T04:19:20;10.48;;;4.60;;
20997;SDS011;10657;51.276;6.390;2022-10-22T04:21:47;10.25;;;4.47;;
20997;SDS011;10657;51.276;6.390;2022-10-22T04:24:14;10.68;;;4.20;;
20997;SDS011;10657;51.276;6.390;2022-10-22T04:26:40;11.50;;;4.35;;
20997;SDS011;10657;51.276;6.390;2022-10-22T04:29:08;9.40;;;4.40;;
20997;SDS011;10657;51.276;6.390;2022-10-22T04:31:41;12.85;;;4.63;;
20997;SDS011;10657;51.276;6.390;2022-10-22T04:34:08;7.75;;;3.75;;
20997;SDS011;10657;51.276;6.390;2022-10-22T04:36:34;8.73;;;3.75;;
20997;SDS011;10657;51.276;6.390;2022-10-22T04:39:01;13.60;;;4.70;;
20997;SDS011;10657;51.276;6.390;2022-10-22T04:41:30;10.93;;;4.50;;
20997;SDS011;10657;51.276;6.390;2022-10-22T04:43:58;17.05;;;4.25;;
20997;SDS011;10657;51.276;6.390;2022-10-22T04:46:26;11.40;;;4.60;;
20997;SDS011;10657;51.276;6.390;2022-10-22T04:48:54;10.45;;;3.90;;
20997;SDS011;10657;51.276;6.390;2022-10-22T04:51:22;8.35;;;4.38;;
20997;SDS011;10657;51.276;6.390;2022-10-22T04:53:51;8.68;;;3.75;;
20997;SDS011;10657;51.276;6.390;2022-10-22T04:56:23;10.68;;;3.92;;
20997;SDS011;10657;51.276;6.390;2022-10-22T04:58:55;11.07;;;3.95;;
20997;SDS011;10657;51.276;6.390;2022-10-22T05:01:25;8.82;;;3.70;;
20997;SDS011;10657;51.276;6.390;2022-10-22T05:03:54;10.15;;;3.83;;
20997;SDS011;10657;51.276;6.390;2022-10-22T05:06:22;9.38;;;3.42;;
20997;SDS011;10657;51.276;6.390;2022-10-22T05:08:54;10.65;;;3.60;;
20997;SDS011;10657;51.276;6.390;2022-10-22T05:11:26;7.88;;;3.70;;
20997;SDS011;10657;51.276;6.390;2022-10-22T05:13:56;11.32;;;2.83;;
20997;SDS011;10657;51.276;6.390;2022-10-22T05:16:23;9.57;;;3.08;;
20997;SDS011;10657;51.276;6.390;2022-10-22T05:18:51;8.77;;;2.97;;
20997;SDS011;10657;51.276;6.390;2022-10-22T05:21:18;11.00;;;3.22;;
20997;SDS011;10657;51.276;6.390;2022-10-22T05:23:47;9.90;;;3.05;;
20997;SDS011;10657;51.276;6.390;2022-10-22T05:26:16;6.78;;;2.65;;
20997;SDS011;10657;51.276;6.390;2022-10-22T05:28:45;11.43;;;2.60;;
20997;SDS011;10657;51.276;6.390;2022-10-22T05:31:13;11.90;;;3.00;;
20997;SDS011;10657;51.276;6.390;2022-10-22T05:33:40;13.70;;;2.83;;
20997;SDS011;10657;51.276;6.390;2022-10-22T05:36:08;7.75;;;2.97;;
20997;SDS011;10657;51.276;6.390;2022-10-22T05:38:38;7.93;;;2.40;;
20997;SDS011;10657;51.276;6.390;2022-10-22T05:41:05;7.20;;;2.65;;
20997;SDS011;10657;51.276;6.390;2022-10-22T05:43:34;9.63;;;2.95;;
20997;SDS011;10657;51.276;6.390;2022-10-22T05:46:08;11.65;;;2.45;;
20997;SDS011;10657;51.276;6.390;2022-10-22T05:48:37;8.60;;;2.67;;
20997;SDS011;10657;51.276;6.390;2022-10-22T05:51:05;8.60;;;2.60;;
20997;SDS011;10657;51.276;6.390;2022-10-22T05:53:35;7.10;;;2.38;;
20997;SDS011;10657;51.276;6.390;2022-10-22T05:56:03;8.93;;;2.38;;
20997;SDS011;10657;51.276;6.390;2022-10-22T05:58:33;10.43;;;2.88;;
20997;SDS011;10657;51.276;6.390;2022-10-22T06:01:04;10.18;;;2.45;;
20997;SDS011;10657;51.276;6.390;2022-10-22T06:03:37;9.02;;;2.47;;
20997;SDS011;10657;51.276;6.390;2022-10-22T06:06:05;5.93;;;2.40;;
20997;SDS011;10657;51.276;6.390;2022-10-22T06:08:40;6.65;;;2.30;;
20997;SDS011;10657;51.276;6.390;2022-10-22T06:11:06;14.77;;;2.83;;
20997;SDS011;10657;51.276;6.390;2022-10-22T06:13:33;10.57;;;2.50;;
20997;SDS011;10657;51.276;6.390;2022-10-22T06:16:00;10.55;;;2.53;;
20997;SDS011;10657;51.276;6.390;2022-10-22T06:18:26;9.00;;;2.60;;
20997;SDS011;10657;51.276;6.390;2022-10-22T06:20:53;5.22;;;1.98;;
20997;SDS011;10657;51.276;6.390;2022-10-22T06:23:20;8.60;;;2.30;;
20997;SDS011;10657;51.276;6.390;2022-10-22T06:25:57;9.43;;;2.47;;
20997;SDS011;10657;51.276;6.390;2022-10-22T06:28:24;10.50;;;2.40;;
20997;SDS011;10657;51.276;6.390;2022-10-22T06:30:51;8.13;;;2.30;;
20997;SDS011;10657;51.276;6.390;2022-10-22T06:33:18;9.68;;;2.53;;
20997;SDS011;10657;51.276;6.390;2022-10-22T06:35:44;8.75;;;2.40;;
20997;SDS011;10657;51.276;6.390;2022-10-22T06:38:13;7.65;;;2.45;;
20997;SDS011;10657;51.276;6.390;2022-10-22T06:40:40;9.20;;;2.50;;
20997;SDS011;10657;51.276;6.390;2022-10-22T06:43:10;11.52;;;2.58;;
20997;SDS011;10657;51.276;6.390;2022-10-22T06:45:37;7.53;;;2.33;;
20997;SDS011;10657;51.276;6.390;2022-10-22T06:48:05;8.38;;;2.78;;
20997;SDS011;10657;51.276;6.390;2022-10-22T06:50:35;9.52;;;2.95;;
20997;SDS011;10657;51.276;6.390;2022-10-22T06:53:02;7.60;;;2.10;;
20997;SDS011;10657;51.276;6.390;2022-10-22T06:55:28;9.00;;;2.22;;
20997;SDS011;10657;51.276;6.390;2022-10-22T06:57:55;9.32;;;2.30;;
20997;SDS011;10657;51.276;6.390;2022-10-22T07:00:22;8.38;;;2.60;;
20997;SDS011;10657;51.276;6.390;2022-10-22T07:02:49;10.02;;;2.17;;
20997;SDS011;10657;51.276;6.390;2022-10-22T07:05:24;7.90;;;1.88;;
20997;SDS011;10657;51.276;6.390;2022-10-22T07:07:50;14.98;;;2.58;;
20997;SDS011;10657;51.276;6.390;2022-10-22T07:10:17;10.60;;;2.45;;
20997;SDS011;10657;51.276;6.390;2022-10-22T07:12:44;6.85;;;2.00;;
20997;SDS011;10657;51.276;6.390;2022-10-22T07:15:10;9.15;;;1.90;;
20997;SDS011;10657;51.276;6.390;2022-10-22T07:17:37;8.45;;;2.20;;
20997;SDS011;10657;51.276;6.390;2022-10-22T07:20:05;8.27;;;1.88;;
20997;SDS011;10657;51.276;6.390;2022-10-22T07:22:32;13.45;;;2.15;;
20997;SDS011;10657;51.276;6.390;2022-10-22T07:24:59;10.65;;;2.10;;
20997;SDS011;10657;51.276;6.390;2022-10-22T07:27:32;7.13;;;2.10;;
20997;SDS011;10657;51.276;6.390;2022-10-22T07:29:59;8.48;;;1.95;;
20997;SDS011;10657;51.276;6.390;2022-10-22T07:32:26;7.55;;;1.60;;
20997;SDS011;10657;51.276;6.390;2022-10-22T07:34:53;7.25;;;1.90;;
20997;SDS011;10657;51.276;6.390;2022-10-22T07:37:20;10.50;;;1.90;;
20997;SDS011;10657;51.276;6.390;2022-10-22T07:39:47;9.30;;;1.80;;
20997;SDS011;10657;51.276;6.390;2022-10-22T07:42:14;12.02;;;2.40;;
20997;SDS011;10657;51.276;6.390;2022-10-22T07:44:41;15.65;;;2.47;;
20997;SDS011;10657;51.276;6.390;2022-10-22T07:47:08;8.07;;;1.75;;
20997;SDS011;10657;51.276;6.390;2022-10-22T07:49:34;7.47;;;2.00;;
20997;SDS011;10657;51.276;6.390;2022-10-22T07:52:01;5.35;;;1.65;;
20997;SDS011;10657;51.276;6.390;2022-10-22T07:54:28;12.02;;;2.20;;
20997;SDS011;10657;51.276;6.390;2022-10-22T07:56:55;8.10;;;1.77;;
20997;SDS011;10657;51.276;6.390;2022-10-22T07:59:21;9.98;;;2.10;;
20997;SDS011;10657;51.276;6.390;2022-10-22T08:01:48;10.45;;;1.95;;
20997;SDS011;10657;51.276;6.390;2022-10-22T08:04:14;8.40;;;2.03;;
20997;SDS011;10657;51.276;6.390;2022-10-22T08:06:41;7.75;;;1.75;;
20997;SDS011;10657;51.276;6.390;2022-10-22T08:09:12;8.70;;;2.00;;
20997;SDS011;10657;51.276;6.390;2022-10-22T08:11:39;5.30;;;1.70;;
20997;SDS011;10657;51.276;6.390;2022-10-22T08:14:06;10.05;;;2.20;;
20997;SDS011;10657;51.276;6.390;2022-10-22T08:16:32;14.75;;;2.08;;
20997;SDS011;10657;51.276;6.390;2022-10-22T08:18:59;10.70;;;1.75;;
20997;SDS011;10657;51.276;6.390;2022-10-22T08:21:26;17.35;;;1.98;;
20997;SDS011;10657;51.276;6.390;2022-10-22T08:23:52;6.82;;;1.52;;
20997;SDS011;10657;51.276;6.390;2022-10-22T08:26:19;9.27;;;1.92;;
20997;SDS011;10657;51.276;6.390;2022-10-22T08:28:46;11.25;;;2.00;;
20997;SDS011;10657;51.276;6.390;2022-10-22T08:31:13;6.63;;;1.60;;
20997;SDS011;10657;51.276;6.390;2022-10-22T08:33:39;10.30;;;2.05;;
20997;SDS011;10657;51.276;6.390;2022-10-22T08:36:07;9.48;;;1.60;;
20997;SDS011;10657;51.276;6.390;2022-10-22T08:38:34;7.88;;;1.95;;
20997;SDS011;10657;51.276;6.390;2022-10-22T08:41:35;10.80;;;1.58;;
20997;SDS011;10657;51.276;6.390;2022-10-22T08:44:00;10.10;;;2.17;;
20997;SDS011;10657;51.276;6.390;2022-10-22T08:49:04;7.70;;;1.40;;
20997;SDS011;10657;51.276;6.390;2022-10-22T08:51:37;11.05;;;1.80;;
20997;SDS011;10657;51.276;6.390;2022-10-22T08:54:09;7.78;;;1.60;;
20997;SDS011;10657;51.276;6.390;2022-10-22T08:56:46;7.35;;;2.35;;
20997;SDS011;10657;51.276;6.390;2022-10-22T09:02:29;9.65;;;1.73;;
20997;SDS011;10657;51.276;6.390;2022-10-22T09:07:48;17.08;;;2.28;;
20997;SDS011;10657;51.276;6.390;2022-10-22T09:10:16;9.05;;;1.65;;
20997;SDS011;10657;51.276;6.390;2022-10-22T09:12:44;9.40;;;1.88;;
20997;SDS011;10657;51.276;6.390;2022-10-22T09:15:13;5.40;;;1.40;;
20997;SDS011;10657;51.276;6.390;2022-10-22T09:17:57;7.05;;;1.60;;
20997;SDS011;10657;51.276;6.390;2022-10-22T09:25:47;10.48;;;2.20;;
20997;SDS011;10657;51.276;6.390;2022-10-22T09:28:16;5.70;;;1.30;;
20997;SDS011;10657;51.276;6.390;2022-10-22T09:30:43;9.70;;;1.50;;
20997;SDS011;10657;51.276;6.390;2022-10-22T09:33:15;6.53;;;1.73;;
20997;SDS011;10657;51.276;6.390;2022-10-22T09:35:51;7.78;;;1.80;;
20997;SDS011;10657;51.276;6.390;2022-10-22T09:38:30;10.77;;;1.40;;
20997;SDS011;10657;51.276;6.390;2022-10-22T09:41:00;6.78;;;1.45;;
20997;SDS011;10657;51.276;6.390;2022-10-22T09:43:29;5.75;;;1.50;;
20997;SDS011;10657;51.276;6.390;2022-10-22T09:45:57;6.38;;;1.58;;
20997;SDS011;10657;51.276;6.390;2022-10-22T09:48:27;8.75;;;1.58;;
20997;SDS011;10657;51.276;6.390;2022-10-22T09:51:04;10.57;;;1.75;;
20997;SDS011;10657;51.276;6.390;2022-10-22T09:53:55;7.55;;;1.58;;
20997;SDS011;10657;51.276;6.390;2022-10-22T09:56:33;8.23;;;1.90;;
20997;SDS011;10657;51.276;6.390;2022-10-22T09:59:11;7.20;;;1.63;;
20997;SDS011;10657;51.276;6.390;2022-10-22T10:01:40;8.65;;;1.52;;
20997;SDS011;10657;51.276;6.390;2022-10-22T10:04:08;8.10;;;2.00;;
20997;SDS011;10657;51.276;6.390;2022-10-22T10:06:37;7.88;;;1.95;;
20997;SDS011;10657;51.276;6.390;2022-10-22T10:09:16;8.48;;;1.45;;
20997;SDS011;10657;51.276;6.390;2022-10-22T10:11:52;14.00;;;2.17;;
20997;SDS011;10657;51.276;6.390;2022-10-22T10:14:58;9.43;;;2.08;;
20997;SDS011;10657;51.276;6.390;2022-10-22T10:17:46;8.25;;;1.60;;
20997;SDS011;10657;51.276;6.390;2022-10-22T10:20:33;8.40;;;1.73;;
20997;SDS011;10657;51.276;6.390;2022-10-22T10:26:03;12.07;;;1.50;;
20997;SDS011;10657;51.276;6.390;2022-10-22T10:31:35;19.75;;;3.83;;
20997;SDS011;10657;51.276;6.390;2022-10-22T10:34:36;10.85;;;1.67;;
20997;SDS011;10657;51.276;6.390;2022-10-22T10:37:19;8.80;;;2.13;;
20997;SDS011;10657;51.276;6.390;2022-10-22T10:40:00;8.05;;;2.20;;
20997;SDS011;10657;51.276;6.390;2022-10-22T10:43:01;7.15;;;1.65;;
20997;SDS011;10657;51.276;6.390;2022-10-22T10:50:59;4.88;;;1.02;;
20997;SDS011;10657;51.276;6.390;2022-10-22T11:01:29;6.40;;;1.45;;
20997;SDS011;10657;51.276;6.390;2022-10-22T11:04:26;11.13;;;1.90;;
20997;SDS011;10657;51.276;6.390;2022-10-22T11:06:56;8.60;;;1.42;;
20997;SDS011;10657;51.276;6.390;2022-10-22T11:09:45;9.18;;;1.40;;
20997;SDS011;10657;51.276;6.390;2022-10-22T11:12:20;5.18;;;1.17;;
20997;SDS011;10657;51.276;6.390;2022-10-22T11:17:35;10.52;;;1.23;;
20997;SDS011;10657;51.276;6.390;2022-10-22T11:20:17;8.05;;;1.30;;
20997;SDS011;10657;51.276;6.390;2022-10-22T11:22:50;9.68;;;1.45;;
20997;SDS011;10657;51.276;6.390;2022-10-22T11:25:45;7.55;;;1.30;;
20997;SDS011;10657;51.276;6.390;2022-10-22T11:28:16;10.15;;;1.60;;
20997;SDS011;10657;51.276;6.390;2022-10-22T11:30:53;16.08;;;1.60;;
20997;SDS011;10657;51.276;6.390;2022-10-22T11:33:52;6.85;;;1.42;;
20997;SDS011;10657;51.276;6.390;2022-10-22T11:36:30;9.88;;;1.27;;
20997;SDS011;10657;51.276;6.390;2022-10-22T11:38:58;8.30;;;1.27;;
20997;SDS011;10657;51.276;6.390;2022-10-22T11:41:28;7.07;;;1.30;;
20997;SDS011;10657;51.276;6.390;2022-10-22T11:46:43;9.15;;;1.30;;
20997;SDS011;10657;51.276;6.390;2022-10-22T11:51:39;6.22;;;1.17;;
20997;SDS011;10657;51.276;6.390;2022-10-22T12:05:16;8.48;;;1.60;;
20997;SDS011;10657;51.276;6.390;2022-10-22T12:07:55;8.43;;;1.17;;
20997;SDS011;10657;51.276;6.390;2022-10-22T12:10:26;3.78;;;1.10;;
20997;SDS011;10657;51.276;6.390;2022-10-22T12:13:20;5.30;;;1.00;;
20997;SDS011;10657;51.276;6.390;2022-10-22T12:15:50;4.25;;;1.10;;
20997;SDS011;10657;51.276;6.390;2022-10-22T12:18:21;6.70;;;1.25;;
20997;SDS011;10657;51.276;6.390;2022-10-22T12:20:51;12.48;;;1.42;;
20997;SDS011;10657;51.276;6.390;2022-10-22T12:23:19;7.90;;;1.45;;
20997;SDS011;10657;51.276;6.390;2022-10-22T12:25:51;6.55;;;1.25;;
20997;SDS011;10657;51.276;6.390;2022-10-22T12:28:18;7.10;;;1.05;;
20997;SDS011;10657;51.276;6.390;2022-10-22T12:30:45;3.95;;;1.08;;
20997;SDS011;10657;51.276;6.390;2022-10-22T12:33:19;8.02;;;1.23;;
20997;SDS011;10657;51.276;6.390;2022-10-22T12:35:48;4.65;;;1.20;;
20997;SDS011;10657;51.276;6.390;2022-10-22T12:38:19;7.45;;;1.38;;
20997;SDS011;10657;51.276;6.390;2022-10-22T12:40:48;5.97;;;1.17;;
20997;SDS011;10657;51.276;6.390;2022-10-22T12:43:23;6.35;;;1.35;;
20997;SDS011;10657;51.276;6.390;2022-10-22T12:45:54;7.80;;;0.98;;
20997;SDS011;10657;51.276;6.390;2022-10-22T12:48:23;6.65;;;0.95;;
20997;SDS011;10657;51.276;6.390;2022-10-22T12:50:54;6.22;;;0.90;;
20997;SDS011;10657;51.276;6.390;2022-10-22T12:53:28;5.93;;;1.27;;
20997;SDS011;10657;51.276;6.390;2022-10-22T12:55:59;4.40;;;0.85;;
20997;SDS011;10657;51.276;6.390;2022-10-22T12:58:31;6.10;;;1.08;;
20997;SDS011;10657;51.276;6.390;2022-10-22T13:01:03;6.03;;;1.20;;
20997;SDS011;10657;51.276;6.390;2022-10-22T13:03:34;6.47;;;1.20;;
20997;SDS011;10657;51.276;6.390;2022-10-22T13:06:12;7.30;;;1.27;;
20997;SDS011;10657;51.276;6.390;2022-10-22T13:08:55;6.10;;;1.38;;
20997;SDS011;10657;51.276;6.390;2022-10-22T13:11:37;5.90;;;1.10;;
20997;SDS011;10657;51.276;6.390;2022-10-22T13:14:20;4.70;;;1.20;;
20997;SDS011;10657;51.276;6.390;2022-10-22T13:27:46;6.63;;;0.80;;
20997;SDS011;10657;51.276;6.390;2022-10-22T13:32:53;5.18;;;1.73;;
20997;SDS011;10657;51.276;6.390;2022-10-22T13:35:24;4.97;;;1.05;;
20997;SDS011;10657;51.276;6.390;2022-10-22T13:37:52;3.42;;;0.90;;
20997;SDS011;10657;51.276;6.390;2022-10-22T13:40:19;2.92;;;0.88;;
20997;SDS011;10657;51.276;6.390;2022-10-22T13:42:46;5.68;;;1.20;;
20997;SDS011;10657;51.276;6.390;2022-10-22T13:45:13;5.72;;;1.10;;
20997;SDS011;10657;51.276;6.390;2022-10-22T13:47:40;7.53;;;1.10;;
20997;SDS011;10657;51.276;6.390;2022-10-22T13:50:11;4.85;;;1.05;;
20997;SDS011;10657;51.276;6.390;2022-10-22T13:52:44;6.55;;;1.10;;
20997;SDS011;10657;51.276;6.390;2022-10-22T13:55:17;6.82;;;1.20;;
20997;SDS011;10657;51.276;6.390;2022-10-22T13:58:12;5.53;;;1.10;;
20997;SDS011;10657;51.276;6.390;2022-10-22T14:00:43;4.63;;;1.08;;
20997;SDS011;10657;51.276;6.390;2022-10-22T14:03:12;5.78;;;1.25;;
20997;SDS011;10657;51.276;6.390;2022-10-22T14:05:42;3.80;;;0.90;;
20997;SDS011;10657;51.276;6.390;2022-10-22T14:08:12;9.27;;;1.30;;
20997;SDS011;10657;51.276;6.390;2022-10-22T14:10:44;8.60;;;1.30;;
20997;SDS011;10657;51.276;6.390;2022-10-22T14:13:12;11.25;;;1.50;;
20997;SDS011;10657;51.276;6.390;2022-10-22T14:15:40;5.35;;;1.30;;
20997;SDS011;10657;51.276;6.390;2022-10-22T14:18:10;5.97;;;1.30;;
20997;SDS011;10657;51.276;6.390;2022-10-22T14:20:40;4.85;;;0.95;;
20997;SDS011;10657;51.276;6.390;2022-10-22T14:23:14;7.10;;;1.23;;
20997;SDS011;10657;51.276;6.390;2022-10-22T14:25:47;6.85;;;1.13;;
20997;SDS011;10657;51.276;6.390;2022-10-22T14:28:16;5.32;;;1.10;;
20997;SDS011;10657;51.276;6.390;2022-10-22T14:30:43;7.10;;;1.25;;
20997;SDS011;10657;51.276;6.390;2022-10-22T14:35:36;4.13;;;1.02;;
20997;SDS011;10657;51.276;6.390;2022-10-22T14:38:03;5.00;;;1.33;;
20997;SDS011;10657;51.276;6.390;2022-10-22T14:40:29;7.07;;;1.27;;
20997;SDS011;10657;51.276;6.390;2022-10-22T14:42:56;4.93;;;1.02;;
20997;SDS011;10657;51.276;6.390;2022-10-22T14:45:24;11.88;;;1.30;;
20997;SDS011;10657;51.276;6.390;2022-10-22T14:47:52;7.35;;;1.30;;
20997;SDS011;10657;51.276;6.390;2022-10-22T14:50:22;4.05;;;1.00;;
20997;SDS011;10657;51.276;6.390;2022-10-22T14:52:50;4.70;;;1.00;;
20997;SDS011;10657;51.276;6.390;2022-10-22T14:55:17;4.78;;;1.23;;
20997;SDS011;10657;51.276;6.390;2022-10-22T14:57:45;7.13;;;1.35;;
20997;SDS011;10657;51.276;6.390;2022-10-22T15:00:13;4.95;;;1.50;;
20997;SDS011;10657;51.276;6.390;2022-10-22T15:02:41;6.80;;;1.27;;
20997;SDS011;10657;51.276;6.390;2022-10-22T15:05:09;6.47;;;1.30;;
20997;SDS011;10657;51.276;6.390;2022-10-22T15:07:36;5.90;;;1.50;;
20997;SDS011;10657;51.276;6.390;2022-10-22T15:10:04;6.93;;;1.23;;
20997;SDS011;10657;51.276;6.390;2022-10-22T15:12:32;4.88;;;1.15;;
20997;SDS011;10657;51.276;6.390;2022-10-22T15:14:59;3.83;;;1.10;;
20997;SDS011;10657;51.276;6.390;2022-10-22T15:17:26;9.52;;;1.30;;
20997;SDS011;10657;51.276;6.390;2022-10-22T15:19:53;5.30;;;1.00;;
20997;SDS011;10657;51.276;6.390;2022-10-22T15:22:21;5.25;;;1.25;;
20997;SDS011;10657;51.276;6.390;2022-10-22T15:24:48;5.10;;;1.33;;
20997;SDS011;10657;51.276;6.390;2022-10-22T15:27:14;7.47;;;1.30;;
20997;SDS011;10657;51.276;6.390;2022-10-22T15:29:41;4.40;;;1.10;;
20997;SDS011;10657;51.276;6.390;2022-10-22T15:32:08;4.88;;;0.98;;
20997;SDS011;10657;51.276;6.390;2022-10-22T15:34:36;5.68;;;1.40;;
20997;SDS011;10657;51.276;6.390;2022-10-22T15:37:05;6.95;;;1.00;;
20997;SDS011;10657;51.276;6.390;2022-10-22T15:39:34;6.80;;;1.30;;
20997;SDS011;10657;51.276;6.390;2022-10-22T15:42:01;5.43;;;1.33;;
20997;SDS011;10657;51.276;6.390;2022-10-22T15:44:28;7.78;;;1.30;;
20997;SDS011;10657;51.276;6.390;2022-10-22T15:46:56;5.05;;;1.20;;
20997;SDS011;10657;51.276;6.390;2022-10-22T15:49:23;5.10;;;1.30;;
20997;SDS011;10657;51.276;6.390;2022-10-22T15:51:52;5.65;;;1.58;;
20997;SDS011;10657;51.276;6.390;2022-10-22T15:54:22;10.20;;;1.77;;
20997;SDS011;10657;51.276;6.390;2022-10-22T15:56:50;5.13;;;1.60;;
20997;SDS011;10657;51.276;6.390;2022-10-22T15:59:17;6.15;;;1.58;;
20997;SDS011;10657;51.276;6.390;2022-10-22T16:01:44;6.57;;;1.70;;
20997;SDS011;10657;51.276;6.390;2022-10-22T16:04:11;9.73;;;1.63;;
20997;SDS011;10657;51.276;6.390;2022-10-22T16:06:38;6.78;;;1.50;;
20997;SDS011;10657;51.276;6.390;2022-10-22T16:09:12;6.65;;;1.55;;
20997;SDS011;10657;51.276;6.390;2022-10-22T16:11:41;8.18;;;1.70;;
20997;SDS011;10657;51.276;6.390;2022-10-22T16:14:09;6.72;;;1.60;;
20997;SDS011;10657;51.276;6.390;2022-10-22T16:16:40;6.40;;;1.55;;
20997;SDS011;10657;51.276;6.390;2022-10-22T16:19:11;8.40;;;1.52;;
20997;SDS011;10657;51.276;6.390;2022-10-22T16:21:40;12.15;;;1.73;;
20997;SDS011;10657;51.276;6.390;2022-10-22T16:24:07;9.35;;;2.00;;
20997;SDS011;10657;51.276;6.390;2022-10-22T16:26:34;7.13;;;2.45;;
20997;SDS011;10657;51.276;6.390;2022-10-22T16:29:01;8.93;;;3.00;;
20997;SDS011;10657;51.276;6.390;2022-10-22T16:31:28;11.30;;;4.82;;
20997;SDS011;10657;51.276;6.390;2022-10-22T16:33:56;11.43;;;5.03;;
20997;SDS011;10657;51.276;6.390;2022-10-22T16:36:22;13.77;;;5.80;;
20997;SDS011;10657;51.276;6.390;2022-10-22T16:38:49;15.55;;;6.22;;